Seaways Skopelos — V7SU9 — position and weather

sailwx.info

Track history (hours):
 
Tides and Currents Weather Stations Pressure Air Temp Water Temp Dewpoint Dewpoint Depression Visibility Wind Speed Wind Dir Waves Ship Positions

Seaways Skopelos

Last reported at 2018-Apr-24 00:29 UTC. Time now 2018-Apr-24 00:58 UTC.
Position N 30°02' W 094°02'.

Length 183 m; draft 9.3 m.

Type: Tanker. MMSI: 538003726.

Date/timePositionNaut miles runAvg speedWind from/ knotsBaromVisibWave heightAir tempDewpointWater temp
2018-Apr-24 00:29N 30°02' W 094°02'0 0.0
2018-Apr-23 23:59N 30°02' W 094°02'0 0.0
2018-Apr-23 23:26N 30°02' W 094°02'0 0.0
2018-Apr-23 22:59N 30°02' W 094°02'0 0.0
2018-Apr-23 22:29N 30°02' W 094°02'0 0.0
2018-Apr-23 21:59N 30°02' W 094°02'0 0.0
2018-Apr-23 21:29N 30°02' W 094°02'0 0.0
2018-Apr-23 20:59N 30°02' W 094°02'0 0.0
2018-Apr-23 20:29N 30°02' W 094°02'0 0.0
2018-Apr-23 19:59N 30°02' W 094°02'0 0.0
2018-Apr-23 19:29N 30°02' W 094°02'0 0.0
2018-Apr-23 18:59N 30°02' W 094°02'0 0.0
2018-Apr-23 18:29N 30°02' W 094°02'0 0.0
2018-Apr-23 17:59N 30°02' W 094°02'0 0.0
2018-Apr-23 17:29N 30°02' W 094°02'0 0.0
2018-Apr-23 16:59N 30°02' W 094°02'0 0.0
2018-Apr-23 16:29N 30°02' W 094°02'0 0.0
2018-Apr-23 16:00N 30°02' W 094°02'1 1.7
2018-Apr-23 15:30N 30°01' W 094°02'3 5.4
2018-Apr-23 15:00N 30°01' W 093°59'3 5.2
2018-Apr-23 14:30N 29°59' W 093°56'3 7.0
2018-Apr-23 14:00N 29°59' W 093°52'3 6.2
2018-Apr-23 13:30N 29°56' W 093°53'3 6.8
2018-Apr-23 13:00N 29°53' W 093°55'3 6.0
2018-Apr-23 12:30N 29°51' W 093°57'4 7.7
2018-Apr-23 12:00N 29°47' W 093°57'4 8.0
2018-Apr-23 11:30N 29°45' W 093°53'4 8.5
2018-Apr-23 11:00N 29°41' W 093°50'5 9.8
2018-Apr-23 10:30N 29°36' W 093°48'611.5
2018-Apr-23 10:00N 29°32' W 093°44'610.9
2018-Apr-23 09:30N 29°28' W 093°40'4 8.3
2018-Apr-23 08:59N 29°24' W 093°38'2 3.5
2018-Apr-23 08:30N 29°25' W 093°37'0 0.4
2018-Apr-23 08:00N 29°25' W 093°37'0 0.0
2018-Apr-23 07:27N 29°25' W 093°37'0 0.0
2018-Apr-23 06:57N 29°25' W 093°37'0 0.0
2018-Apr-23 06:27N 29°25' W 093°37'0 0.0
2018-Apr-23 05:57N 29°25' W 093°37'0 0.0
2018-Apr-23 05:27N 29°25' W 093°37'0 0.0
2018-Apr-23 04:57N 29°25' W 093°37'0 1.0
2018-Apr-23 04:30N 29°25' W 093°37'3 6.3
2018-Apr-23 04:00N 29°22' W 093°38'611.4
2018-Apr-23 03:30N 29°16' W 093°39'  
Track history (hours):
 
Tides and Currents Weather Stations Pressure Air Temp Water Temp Dewpoint Dewpoint Depression Visibility Wind Speed Wind Dir Waves Ship Positions

Seaways Skopelos

Last reported at 2018-Apr-24 00:29 UTC. Time now 2018-Apr-24 00:58 UTC.
Position N 30°02' W 094°02'.

Length 183 m; draft 9.3 m.

Type: Tanker. MMSI: 538003726.

Date/timePositionNaut miles runAvg speedWind from/ knotsBaromVisibWave heightAir tempDewpointWater temp
2018-Apr-24 00:29N 30°02' W 094°02'0 0.0
2018-Apr-23 23:59N 30°02' W 094°02'0 0.0
2018-Apr-23 23:26N 30°02' W 094°02'0 0.0
2018-Apr-23 22:59N 30°02' W 094°02'0 0.0
2018-Apr-23 22:29N 30°02' W 094°02'0 0.0
2018-Apr-23 21:59N 30°02' W 094°02'0 0.0
2018-Apr-23 21:29N 30°02' W 094°02'0 0.0
2018-Apr-23 20:59N 30°02' W 094°02'0 0.0
2018-Apr-23 20:29N 30°02' W 094°02'0 0.0
2018-Apr-23 19:59N 30°02' W 094°02'0 0.0
2018-Apr-23 19:29N 30°02' W 094°02'0 0.0
2018-Apr-23 18:59N 30°02' W 094°02'0 0.0
2018-Apr-23 18:29N 30°02' W 094°02'0 0.0
2018-Apr-23 17:59N 30°02' W 094°02'0 0.0
2018-Apr-23 17:29N 30°02' W 094°02'0 0.0
2018-Apr-23 16:59N 30°02' W 094°02'0 0.0
2018-Apr-23 16:29N 30°02' W 094°02'0 0.0
2018-Apr-23 16:00N 30°02' W 094°02'1 1.7
2018-Apr-23 15:30N 30°01' W 094°02'3 5.4
2018-Apr-23 15:00N 30°01' W 093°59'3 5.2
2018-Apr-23 14:30N 29°59' W 093°56'3 7.0
2018-Apr-23 14:00N 29°59' W 093°52'3 6.2
2018-Apr-23 13:30N 29°56' W 093°53'3 6.8
2018-Apr-23 13:00N 29°53' W 093°55'3 6.0
2018-Apr-23 12:30N 29°51' W 093°57'4 7.7
2018-Apr-23 12:00N 29°47' W 093°57'4 8.0
2018-Apr-23 11:30N 29°45' W 093°53'4 8.5
2018-Apr-23 11:00N 29°41' W 093°50'5 9.8
2018-Apr-23 10:30N 29°36' W 093°48'611.5
2018-Apr-23 10:00N 29°32' W 093°44'610.9
2018-Apr-23 09:30N 29°28' W 093°40'4 8.3
2018-Apr-23 08:59N 29°24' W 093°38'2 3.5
2018-Apr-23 08:30N 29°25' W 093°37'0 0.4
2018-Apr-23 08:00N 29°25' W 093°37'0 0.0
2018-Apr-23 07:27N 29°25' W 093°37'0 0.0
2018-Apr-23 06:57N 29°25' W 093°37'0 0.0
2018-Apr-23 06:27N 29°25' W 093°37'0 0.0
2018-Apr-23 05:57N 29°25' W 093°37'0 0.0
2018-Apr-23 05:27N 29°25' W 093°37'0 0.0
2018-Apr-23 04:57N 29°25' W 093°37'0 1.0
2018-Apr-23 04:30N 29°25' W 093°37'3 6.3
2018-Apr-23 04:00N 29°22' W 093°38'611.4
2018-Apr-23 03:30N 29°16' W 093°39'  

Dump ship's entire track history